createdAt,value
2022-12-22T00:01:52.188Z,100410.25
2022-12-22T00:04:37.404Z,100406.63
2022-12-22T00:07:22.509Z,100419.59
2022-12-22T00:10:07.784Z,100415.50
2022-12-22T00:12:53.158Z,100410.44
2022-12-22T00:15:38.928Z,100403.00
2022-12-22T00:18:24.541Z,100405.69
2022-12-22T00:21:09.725Z,100392.56
2022-12-22T00:23:54.845Z,100401.28
2022-12-22T00:26:40.082Z,100410.16
2022-12-22T00:29:25.665Z,100394.94
2022-12-22T00:32:10.854Z,100401.88
2022-12-22T00:35:00.221Z,100384.31
2022-12-22T00:37:51.373Z,100390.50
2022-12-22T00:40:37.833Z,100392.06
2022-12-22T00:43:22.931Z,100388.09
2022-12-22T00:46:09.243Z,100374.91
2022-12-22T00:48:54.531Z,100384.38
2022-12-22T00:51:39.593Z,100380.78
2022-12-22T00:54:28.120Z,100370.47
2022-12-22T00:57:13.401Z,100376.31
2022-12-22T00:59:59.019Z,100368.78
2022-12-22T01:02:43.980Z,100374.09
2022-12-22T01:05:29.134Z,100372.19
2022-12-22T01:08:14.806Z,100376.69
2022-12-22T01:11:00.436Z,100366.22
2022-12-22T01:13:46.690Z,100365.16
2022-12-22T01:16:32.303Z,100367.22
2022-12-22T01:19:17.541Z,100366.41
2022-12-22T01:22:02.925Z,100362.41
2022-12-22T01:24:48.748Z,100354.84
2022-12-22T01:27:34.531Z,100347.41
2022-12-22T01:30:20.255Z,100339.03
2022-12-22T01:33:05.313Z,100335.22
2022-12-22T01:35:53.026Z,100334.59
2022-12-22T01:38:38.273Z,100331.47
2022-12-22T01:41:24.374Z,100338.66
2022-12-22T01:44:09.522Z,100338.03
2022-12-22T01:46:59.744Z,100331.41
2022-12-22T01:49:52.640Z,100330.34
2022-12-22T01:52:39.256Z,100325.63
2022-12-22T01:55:27.023Z,100323.97
2022-12-22T01:58:12.253Z,100313.22
2022-12-22T02:00:58.014Z,100317.31
2022-12-22T02:03:43.466Z,100312.59
2022-12-22T02:06:45.957Z,100297.91
2022-12-22T02:09:43.280Z,100307.09
2022-12-22T02:13:02.894Z,100304.09
2022-12-22T02:15:53.635Z,100289.78
2022-12-22T02:18:45.026Z,100293.63
2022-12-22T02:21:32.571Z,100283.59
2022-12-22T02:24:37.060Z,100283.72
2022-12-22T02:27:22.321Z,100272.97
2022-12-22T02:30:13.244Z,100265.97
2022-12-22T02:33:07.090Z,100253.72
2022-12-22T02:36:16.868Z,100257.66
2022-12-22T02:39:08.239Z,100257.16
2022-12-22T02:42:15.148Z,100250.59
2022-12-22T02:45:33.113Z,100241.53
2022-12-22T02:48:25.963Z,100243.50
2022-12-22T02:51:16.089Z,100235.28
2022-12-22T02:54:01.373Z,100235.44
2022-12-22T02:56:46.571Z,100232.59
2022-12-22T02:59:31.786Z,100220.53
2022-12-22T03:02:17.328Z,100224.63
2022-12-22T03:05:02.268Z,100220.94
2022-12-22T03:07:47.083Z,100232.09
2022-12-22T03:10:32.224Z,100229.00
2022-12-22T03:13:18.624Z,100229.31
2022-12-22T03:16:03.627Z,100224.06
2022-12-22T03:18:48.770Z,100220.25
2022-12-22T03:21:34.047Z,100213.78
2022-12-22T03:24:19.119Z,100209.78
2022-12-22T03:26:45.616Z,100211.09
2022-12-22T03:29:12.186Z,100217.97
2022-12-22T03:31:38.733Z,100219.84
2022-12-22T03:34:05.286Z,100219.31
2022-12-22T03:36:31.861Z,100212.94
2022-12-22T03:38:58.393Z,100206.31
2022-12-22T03:41:43.542Z,100206.31
2022-12-22T03:44:28.713Z,100201.50
2022-12-22T03:46:55.295Z,100190.97
2022-12-22T03:49:22.989Z,100187.09
2022-12-22T03:51:51.031Z,100184.34
2022-12-22T03:54:22.729Z,100178.63
2022-12-22T03:56:49.730Z,100166.06
2022-12-22T03:59:16.996Z,100163.88
2022-12-22T04:01:46.471Z,100156.00
2022-12-22T04:04:14.951Z,100153.19
2022-12-22T04:06:41.709Z,100152.19
2022-12-22T04:09:08.439Z,100145.47
2022-12-22T04:11:54.157Z,100144.53
2022-12-22T04:14:21.694Z,100135.94
2022-12-22T04:16:48.725Z,100131.22
2022-12-22T04:19:16.138Z,100139.06
2022-12-22T04:21:43.164Z,100144.69
2022-12-22T04:24:11.369Z,100139.56
2022-12-22T04:26:38.089Z,100141.00
2022-12-22T04:29:04.686Z,100134.63
2022-12-22T04:31:31.343Z,100134.31
2022-12-22T04:33:58.567Z,100142.16
2022-12-22T04:36:25.091Z,100139.25
2022-12-22T04:38:51.591Z,100116.59
2022-12-22T04:41:18.156Z,100119.28
2022-12-22T04:43:44.700Z,100119.28
2022-12-22T04:46:11.340Z,100117.03
2022-12-22T04:48:37.859Z,100121.78
2022-12-22T04:51:04.595Z,100114.56
2022-12-22T04:53:31.958Z,100111.22
2022-12-22T04:56:04.135Z,100119.75
2022-12-22T04:58:31.294Z,100100.47
2022-12-22T05:00:58.254Z,100102.81
2022-12-22T05:03:24.947Z,100095.41
2022-12-22T05:05:51.476Z,100081.63
2022-12-22T05:08:17.985Z,100086.00
2022-12-22T05:10:44.703Z,100088.78
2022-12-22T05:13:11.248Z,100083.88
2022-12-22T05:15:37.807Z,100081.19
2022-12-22T05:18:04.589Z,100073.78
2022-12-22T05:20:32.021Z,100071.53
2022-12-22T05:22:58.884Z,100072.22
2022-12-22T05:25:29.951Z,100071.31
2022-12-22T05:27:59.492Z,100070.22
2022-12-22T05:30:26.439Z,100062.25
2022-12-22T05:32:53.015Z,100056.75
2022-12-22T05:35:19.596Z,100059.88
2022-12-22T05:37:46.144Z,100054.84
2022-12-22T05:40:12.812Z,100051.38
2022-12-22T05:42:39.615Z,100044.28
2022-12-22T05:45:18.126Z,100038.34
2022-12-22T05:47:47.543Z,100045.88
2022-12-22T05:50:15.398Z,100037.44
2022-12-22T05:52:43.919Z,100040.59
2022-12-22T05:55:11.130Z,100030.81
2022-12-22T05:57:38.418Z,100032.28
2022-12-22T06:00:06.940Z,100028.25
2022-12-22T06:02:39.316Z,100027.56
2022-12-22T06:05:06.658Z,100022.63
2022-12-22T06:07:33.124Z,100023.31
2022-12-22T06:09:59.730Z,100019.59
2022-12-22T06:12:26.335Z,100014.91
2022-12-22T06:14:52.840Z,100013.44
2022-12-22T06:17:19.413Z,100014.88
2022-12-22T06:19:45.920Z,100011.28
2022-12-22T06:22:12.431Z,100006.81
2022-12-22T06:24:38.998Z,99994.56
2022-12-22T06:27:05.680Z,100002.78
2022-12-22T06:29:32.212Z,99999.28
2022-12-22T06:31:58.739Z,99996.03
2022-12-22T06:34:25.231Z,99997.50
2022-12-22T06:36:51.766Z,99998.41
2022-12-22T06:39:18.293Z,99988.16
2022-12-22T06:42:03.503Z,99986.94
2022-12-22T06:44:30.022Z,99998.81
2022-12-22T06:46:56.680Z,99992.66
2022-12-22T06:49:23.497Z,99986.94
2022-12-22T06:51:50.388Z,99981.44
2022-12-22T06:54:22.253Z,99984.00
2022-12-22T06:56:52.357Z,99989.38
2022-12-22T06:59:19.316Z,99990.59
2022-12-22T07:01:47.083Z,99988.72
2022-12-22T07:04:19.676Z,99985.91
2022-12-22T07:06:47.880Z,99980.88
2022-12-22T07:09:14.557Z,99974.03
2022-12-22T07:11:41.559Z,99978.63
2022-12-22T07:14:08.105Z,99966.47
2022-12-22T07:16:34.785Z,99972.31
2022-12-22T07:19:01.377Z,99968.72
2022-12-22T07:21:28.025Z,99966.22
2022-12-22T07:23:54.516Z,99969.72
2022-12-22T07:26:21.083Z,99976.41
2022-12-22T07:28:47.581Z,99965.41
2022-12-22T07:31:16.029Z,99972.25
2022-12-22T07:33:42.586Z,99972.44
2022-12-22T07:36:14.618Z,99963.22
2022-12-22T07:38:42.673Z,99969.84
2022-12-22T07:41:28.941Z,99966.00
2022-12-22T07:43:57.471Z,99964.19
2022-12-22T07:46:25.344Z,99960.38
2022-12-22T07:49:10.644Z,99953.94
2022-12-22T07:51:39.238Z,99953.19
2022-12-22T07:54:06.067Z,99947.25
2022-12-22T07:56:32.621Z,99944.13
2022-12-22T07:58:59.522Z,99945.25
2022-12-22T08:01:26.682Z,99953.34
2022-12-22T08:03:53.351Z,99936.69
2022-12-22T08:06:20.838Z,99933.97
2022-12-22T08:08:47.424Z,99931.97
2022-12-22T08:11:13.983Z,99928.50
2022-12-22T08:13:40.623Z,99929.03
2022-12-22T08:16:09.236Z,99922.41
2022-12-22T08:18:36.024Z,99930.66
2022-12-22T08:21:03.855Z,99918.94
2022-12-22T08:23:31.028Z,99927.38
2022-12-22T08:26:12.136Z,99919.81
2022-12-22T08:28:47.533Z,99922.81
2022-12-22T08:31:14.316Z,99917.63
2022-12-22T08:33:40.837Z,99920.22
2022-12-22T08:36:08.571Z,99919.22
2022-12-22T08:38:36.791Z,99914.50
2022-12-22T08:41:03.380Z,99912.06
2022-12-22T08:43:31.470Z,99911.81
2022-12-22T08:45:57.992Z,99906.59
2022-12-22T08:48:24.539Z,99906.66
2022-12-22T08:50:51.068Z,99903.91
2022-12-22T08:53:37.610Z,99900.44
2022-12-22T08:56:04.336Z,99890.50
2022-12-22T08:58:31.934Z,99889.22
2022-12-22T09:00:59.561Z,99886.50
2022-12-22T09:03:26.181Z,99879.66
2022-12-22T09:05:52.737Z,99883.56
2022-12-22T09:08:19.339Z,99886.25
2022-12-22T09:10:46.218Z,99880.44
2022-12-22T09:13:12.826Z,99874.09
2022-12-22T09:15:39.362Z,99876.19
2022-12-22T09:18:05.932Z,99867.41
2022-12-22T09:20:35.071Z,99872.19
2022-12-22T09:23:01.672Z,99870.38
2022-12-22T09:25:28.327Z,99868.88
2022-12-22T09:27:54.912Z,99863.69
2022-12-22T09:30:21.519Z,99861.41
2022-12-22T09:32:48.188Z,99868.97
2022-12-22T09:35:14.904Z,99858.19
2022-12-22T09:37:41.846Z,99851.16
2022-12-22T09:40:09.157Z,99862.38
2022-12-22T09:42:35.813Z,99850.03
2022-12-22T09:45:02.736Z,99847.16
2022-12-22T09:47:38.793Z,99839.75
2022-12-22T09:50:08.776Z,99835.22
2022-12-22T09:52:35.351Z,99830.53
2022-12-22T09:55:13.458Z,99831.81
2022-12-22T09:57:40.016Z,99839.50
2022-12-22T10:00:14.457Z,99837.59
2022-12-22T10:03:05.500Z,99833.75
2022-12-22T10:05:39.547Z,99829.22
2022-12-22T10:08:14.635Z,99834.78
2022-12-22T10:10:41.731Z,99823.16
2022-12-22T10:13:17.012Z,99826.44
2022-12-22T10:15:44.425Z,99824.34
2022-12-22T10:18:23.973Z,99822.25
2022-12-22T10:21:30.286Z,99819.81
2022-12-22T10:23:56.868Z,99810.25
2022-12-22T10:26:31.463Z,99805.13
2022-12-22T10:29:04.607Z,99802.69
2022-12-22T10:31:35.794Z,99800.84
2022-12-22T10:34:13.012Z,99792.75
2022-12-22T10:36:40.043Z,99796.38
2022-12-22T10:39:10.922Z,99797.19
2022-12-22T10:41:43.430Z,99785.34
2022-12-22T10:44:16.113Z,99788.91
2022-12-22T10:46:45.005Z,99784.03
2022-12-22T10:49:17.313Z,99781.56
2022-12-22T10:51:46.822Z,99783.09
2022-12-22T10:54:33.791Z,99785.09
2022-12-22T10:57:34.726Z,99777.66
2022-12-22T11:00:09.800Z,99773.63
2022-12-22T11:02:38.487Z,99778.94
2022-12-22T11:05:08.200Z,99772.41
2022-12-22T11:07:45.473Z,99773.94
2022-12-22T11:10:39.757Z,99774.41
2022-12-22T11:13:22.149Z,99763.50
2022-12-22T11:16:28.411Z,99757.97
2022-12-22T11:19:20.768Z,99761.53
2022-12-22T11:21:56.327Z,99752.03
2022-12-22T11:24:31.458Z,99748.63
2022-12-22T11:27:19.750Z,99757.56
2022-12-22T11:30:04.616Z,99748.00
2022-12-22T11:32:53.670Z,99747.59
2022-12-22T11:35:44.950Z,99751.44
2022-12-22T11:38:18.557Z,99746.06
2022-12-22T11:40:48.314Z,99743.06
2022-12-22T11:43:20.802Z,99736.19
2022-12-22T11:45:54.050Z,99738.94
2022-12-22T11:48:31.121Z,99735.53
2022-12-22T11:51:13.712Z,99733.88
2022-12-22T11:54:10.822Z,99729.28
2022-12-22T11:56:39.871Z,99731.69
2022-12-22T11:59:15.970Z,99732.53
2022-12-22T12:02:04.233Z,99726.72
2022-12-22T12:04:49.803Z,99729.41
2022-12-22T12:07:25.943Z,99724.00
2022-12-22T12:10:17.380Z,99733.38
2022-12-22T12:12:50.220Z,99723.00
2022-12-22T12:15:28.201Z,99714.13
2022-12-22T12:18:03.082Z,99725.31
2022-12-22T12:20:46.305Z,99722.81
2022-12-22T12:23:12.892Z,99733.31
2022-12-22T12:25:55.702Z,99736.50
2022-12-22T12:28:28.217Z,99728.69
2022-12-22T12:30:59.825Z,99724.91
2022-12-22T12:33:36.602Z,99722.63
2022-12-22T12:36:15.678Z,99727.25
2022-12-22T12:39:33.543Z,99720.31
2022-12-22T12:42:26.364Z,99718.44
2022-12-22T12:44:53.543Z,99716.59
2022-12-22T12:47:34.463Z,99718.13
2022-12-22T12:50:28.926Z,99725.53
2022-12-22T12:52:55.329Z,99715.44
2022-12-22T12:55:31.562Z,99717.78
2022-12-22T12:58:00.988Z,99715.88
2022-12-22T13:00:33.678Z,99721.34
2022-12-22T13:03:20.006Z,99720.53
2022-12-22T13:06:02.321Z,99717.13
2022-12-22T13:08:32.370Z,99725.41
2022-12-22T13:10:58.803Z,99724.75
2022-12-22T13:13:25.357Z,99733.34
2022-12-22T13:16:00.776Z,99736.84
2022-12-22T13:18:30.458Z,99731.09
2022-12-22T13:21:50.915Z,99738.53
2022-12-22T13:24:23.012Z,99746.66
2022-12-22T13:26:43.539Z,99751.75
2022-12-22T13:29:35.874Z,99758.69
2022-12-22T13:32:12.250Z,99761.09
2022-12-22T13:35:28.914Z,99762.59
2022-12-22T13:37:41.681Z,99759.53
2022-12-22T13:40:16.105Z,99761.81
2022-12-22T13:42:49.208Z,99765.72
2022-12-22T13:45:37.975Z,99767.69
2022-12-22T13:48:30.478Z,99771.53
2022-12-22T13:51:00.263Z,99767.34
2022-12-22T13:56:26.036Z,99772.75
2022-12-22T13:58:59.611Z,99779.28
2022-12-22T14:01:26.361Z,99787.00
2022-12-22T14:04:03.592Z,99782.41
2022-12-22T14:06:35.747Z,99790.06
2022-12-22T14:09:15.882Z,99786.56
2022-12-22T14:11:55.270Z,99794.22
2022-12-22T14:14:27.524Z,99791.94
2022-12-22T14:16:56.876Z,99802.03
2022-12-22T14:19:24.937Z,99804.31
2022-12-22T14:22:05.537Z,99808.91
2022-12-22T14:24:38.255Z,99815.16
2022-12-22T14:27:06.740Z,99820.16
2022-12-22T14:29:33.404Z,99820.56
2022-12-22T14:32:02.048Z,99830.97
2022-12-22T14:34:31.411Z,99825.63
2022-12-22T14:36:58.675Z,99829.41
2022-12-22T14:39:27.503Z,99840.25
2022-12-22T14:41:56.144Z,99844.03
2022-12-22T14:44:22.707Z,99842.97
2022-12-22T14:47:06.301Z,99849.88
2022-12-22T14:49:33.606Z,99849.94
2022-12-22T14:52:07.554Z,99849.13
2022-12-22T14:54:34.598Z,99860.28
2022-12-22T14:57:15.560Z,99864.00
2022-12-22T15:00:01.454Z,99872.00
2022-12-22T15:02:39.996Z,99870.44
2022-12-22T15:05:16.156Z,99881.94
2022-12-22T15:10:49.816Z,99886.56
2022-12-22T15:13:23.025Z,99888.69
2022-12-22T15:15:50.807Z,99896.44
2022-12-22T15:18:17.863Z,99896.44
2022-12-22T15:20:44.590Z,99898.69
2022-12-22T15:23:17.123Z,99898.28
2022-12-22T15:25:44.454Z,99904.53
2022-12-22T15:28:11.050Z,99918.47
2022-12-22T15:30:37.910Z,99915.69
2022-12-22T15:33:04.588Z,99925.69
2022-12-22T15:35:33.251Z,99932.88
2022-12-22T15:38:00.119Z,99935.63
2022-12-22T15:40:27.661Z,99937.22
2022-12-22T15:42:54.560Z,99952.47
2022-12-22T15:45:22.196Z,99943.19
2022-12-22T15:47:51.616Z,99941.91
2022-12-22T15:50:20.886Z,99935.84
2022-12-22T15:52:51.649Z,99943.09
2022-12-22T15:55:19.250Z,99945.34
2022-12-22T15:57:47.470Z,99954.94
2022-12-22T16:00:15.226Z,99962.88
2022-12-22T16:02:41.902Z,99971.25
2022-12-22T16:05:09.604Z,99989.78
2022-12-22T16:07:37.233Z,99975.09
2022-12-22T16:10:05.070Z,99990.59
2022-12-22T16:12:32.335Z,99992.75
2022-12-22T16:14:59.534Z,99995.03
2022-12-22T16:17:27.676Z,100006.16
2022-12-22T16:19:54.232Z,99998.16
2022-12-22T16:22:29.913Z,99998.75
2022-12-22T16:24:56.626Z,99998.75
2022-12-22T16:27:23.185Z,100015.06
2022-12-22T16:29:52.069Z,100008.78
2022-12-22T16:32:29.836Z,100015.41
2022-12-22T16:35:01.327Z,100023.69
2022-12-22T16:37:27.871Z,100014.09
2022-12-22T16:39:54.549Z,100014.72
2022-12-22T16:45:07.220Z,100027.66
2022-12-22T16:47:35.472Z,100033.84
2022-12-22T16:50:02.089Z,100043.34
2022-12-22T16:52:35.552Z,100036.72
2022-12-22T16:55:02.319Z,100039.69
2022-12-22T16:57:28.999Z,100038.78
2022-12-22T16:59:55.746Z,100039.16
2022-12-22T17:02:29.615Z,100039.47
2022-12-22T17:04:58.123Z,100049.81
2022-12-22T17:07:24.686Z,100046.25
2022-12-22T17:09:54.272Z,100051.66
2022-12-22T17:12:24.424Z,100056.50
2022-12-22T17:14:52.385Z,100065.63
2022-12-22T17:17:30.902Z,100068.91
2022-12-22T17:19:59.869Z,100057.94
2022-12-22T17:22:28.747Z,100057.84
2022-12-22T17:24:57.433Z,100065.75
2022-12-22T17:27:27.843Z,100065.28
2022-12-22T17:29:55.277Z,100062.50
2022-12-22T17:32:22.015Z,100072.47
2022-12-22T17:34:49.383Z,100071.63
2022-12-22T17:37:17.778Z,100075.44
2022-12-22T17:39:45.771Z,100074.56
2022-12-22T17:42:22.858Z,100082.53
2022-12-22T17:44:50.342Z,100080.19
2022-12-22T17:47:29.075Z,100085.56
2022-12-22T17:49:58.652Z,100080.44
2022-12-22T17:52:27.033Z,100085.38
2022-12-22T17:54:53.959Z,100088.59
2022-12-22T17:57:32.922Z,100093.22
2022-12-22T18:00:00.541Z,100094.31
2022-12-22T18:02:27.279Z,100093.31
2022-12-22T18:04:53.881Z,100090.94
2022-12-22T18:07:22.674Z,100094.78
2022-12-22T18:09:50.130Z,100097.47
2022-12-22T18:12:21.113Z,100106.22
2022-12-22T18:14:49.049Z,100101.53
2022-12-22T18:17:31.643Z,100102.19
2022-12-22T18:20:01.977Z,100111.84
2022-12-22T18:22:29.545Z,100103.75
2022-12-22T18:24:56.435Z,100107.25
2022-12-22T18:27:23.229Z,100113.53
2022-12-22T18:29:49.899Z,100114.31
2022-12-22T18:32:25.253Z,100110.50
2022-12-22T18:34:53.848Z,100114.09
2022-12-22T18:37:20.355Z,100107.59
2022-12-22T18:39:46.978Z,100104.13
2022-12-22T18:42:20.697Z,100106.13
2022-12-22T18:44:47.658Z,100109.59
2022-12-22T18:47:14.457Z,100100.28
2022-12-22T18:49:41.030Z,100117.69
2022-12-22T18:52:21.970Z,100102.44
2022-12-22T18:54:49.132Z,100107.25
2022-12-22T18:57:19.667Z,100101.44
2022-12-22T18:59:47.564Z,100102.88
2022-12-22T19:02:29.097Z,100098.28
2022-12-22T19:04:56.410Z,100101.56
2022-12-22T19:07:24.983Z,100104.25
2022-12-22T19:09:51.961Z,100099.97
2022-12-22T19:12:21.985Z,100097.97
2022-12-22T19:14:51.729Z,100099.88
2022-12-22T19:17:20.611Z,100104.47
2022-12-22T19:19:47.335Z,100105.94
2022-12-22T19:22:15.294Z,100105.94
2022-12-22T19:24:44.752Z,100108.97
2022-12-22T19:27:18.064Z,100115.38
2022-12-22T19:29:45.161Z,100111.09
2022-12-22T19:32:23.267Z,100108.28
2022-12-22T19:34:50.016Z,100109.75
2022-12-22T19:37:16.640Z,100113.47
2022-12-22T19:39:43.163Z,100113.03
2022-12-22T19:42:17.373Z,100111.00
2022-12-22T19:44:44.240Z,100111.78
2022-12-22T19:47:22.109Z,100103.94
2022-12-22T19:49:48.666Z,100095.88
2022-12-22T19:52:15.235Z,100105.72
2022-12-22T19:54:41.751Z,100095.31
2022-12-22T19:57:18.992Z,100091.28
2022-12-22T19:59:47.304Z,100094.97
2022-12-22T20:02:26.576Z,100096.44
2022-12-22T20:04:54.386Z,100097.19
2022-12-22T20:07:22.778Z,100098.53
2022-12-22T20:09:49.330Z,100104.59
2022-12-22T20:12:37.471Z,100093.97
2022-12-22T20:15:32.577Z,100095.75
2022-12-22T20:17:59.119Z,100094.63
2022-12-22T20:20:36.816Z,100093.72
2022-12-22T20:23:06.844Z,100096.41
2022-12-22T20:25:40.713Z,100103.38
2022-12-22T20:28:37.593Z,100105.59
2022-12-22T20:31:04.922Z,100103.47
2022-12-22T20:33:31.756Z,100096.97
2022-12-22T20:36:00.418Z,100100.47
2022-12-22T20:38:38.504Z,100100.31
2022-12-22T20:41:07.402Z,100096.06
2022-12-22T20:43:35.157Z,100088.00
2022-12-22T20:46:04.324Z,100089.44
2022-12-22T20:48:44.927Z,100096.75
2022-12-22T20:51:15.625Z,100100.41
2022-12-22T20:53:43.399Z,100092.81
2022-12-22T20:56:28.190Z,100097.72
2022-12-22T20:58:55.079Z,100091.59
2022-12-22T21:01:21.794Z,100089.22
2022-12-22T21:03:48.362Z,100095.41
2022-12-22T21:06:29.201Z,100091.81
2022-12-22T21:08:58.111Z,100090.22
2022-12-22T21:11:25.521Z,100104.44
2022-12-22T21:13:52.272Z,100110.63
2022-12-22T21:16:23.075Z,100107.50
2022-12-22T21:18:50.708Z,100093.69
2022-12-22T21:21:17.293Z,100107.59
2022-12-22T21:23:43.872Z,100099.31
2022-12-22T21:26:31.740Z,100094.59
2022-12-22T21:28:59.937Z,100092.34
2022-12-22T21:31:26.532Z,100089.22
2022-12-22T21:33:53.079Z,100097.50
2022-12-22T21:36:24.057Z,100086.75
2022-12-22T21:39:32.501Z,100094.38
2022-12-22T21:42:01.941Z,100097.06
2022-12-22T21:44:29.704Z,100098.19
2022-12-22T21:46:56.377Z,100096.25
2022-12-22T21:49:24.598Z,100090.44
2022-12-22T21:51:52.465Z,100100.41
2022-12-22T21:54:20.232Z,100096.16
2022-12-22T21:56:47.102Z,100100.41
2022-12-22T21:59:14.172Z,100097.28
2022-12-22T22:01:41.384Z,100099.97
2022-12-22T22:04:08.728Z,100097.59
2022-12-22T22:06:35.306Z,100092.09
2022-12-22T22:09:04.687Z,100090.44
2022-12-22T22:11:31.788Z,100085.69
2022-12-22T22:13:58.275Z,100075.72
2022-12-22T22:16:24.920Z,100071.34
2022-12-22T22:18:51.615Z,100068.81
2022-12-22T22:21:18.197Z,100063.88
2022-12-22T22:23:44.721Z,100064.63
2022-12-22T22:26:11.269Z,100062.53
2022-12-22T22:28:38.119Z,100073.50
2022-12-22T22:31:11.689Z,100066.78
2022-12-22T22:33:38.382Z,100067.59
2022-12-22T22:36:07.533Z,100080.22
2022-12-22T22:38:34.314Z,100078.44
2022-12-22T22:41:00.916Z,100071.72
2022-12-22T22:43:27.462Z,100067.91
2022-12-22T22:45:54.006Z,100057.59
2022-12-22T22:48:21.971Z,100063.66
2022-12-22T22:50:49.099Z,100061.75
2022-12-22T22:53:15.871Z,100061.19
2022-12-22T22:55:42.589Z,100050.22
2022-12-22T22:58:11.401Z,100044.19
2022-12-22T23:00:38.900Z,100041.63
2022-12-22T23:03:05.658Z,100043.19
2022-12-22T23:05:32.487Z,100040.59
2022-12-22T23:07:59.029Z,100032.53
2022-12-22T23:10:25.545Z,100042.63
2022-12-22T23:12:52.182Z,100049.81
2022-12-22T23:15:18.752Z,100049.34
2022-12-22T23:17:45.288Z,100034.53
2022-12-22T23:20:11.864Z,100037.59
2022-12-22T23:22:38.743Z,100030.75
2022-12-22T23:25:05.471Z,100033.09
2022-12-22T23:27:32.038Z,100026.16
2022-12-22T23:29:58.573Z,100032.53
2022-12-22T23:32:25.128Z,100024.59
2022-12-22T23:34:52.140Z,100032.75
2022-12-22T23:37:19.568Z,100018.66
2022-12-22T23:39:46.765Z,100023.69
2022-12-22T23:42:13.359Z,100022.44
2022-12-22T23:44:39.899Z,100015.38
2022-12-22T23:47:06.920Z,100006.88
2022-12-22T23:49:33.663Z,100000.28
2022-12-22T23:52:00.228Z,99994.78
2022-12-22T23:54:26.739Z,99991.53
2022-12-22T23:56:53.274Z,99981.47
2022-12-22T23:59:19.783Z,99989.97
